Terminal Aerodrome Forecast
Issued by NWS

Home | Current Version | Previous Version | Text Only | Print | Product List | Glossary On
Versions: 1 2 3 4 5 6 7 8 9 10 11 12 13 14 15
000
FTUS43 KAPX 280027 RRA
TAFAPN
TAF
KAPN 280027Z 2800/2824 35008KT P6SM BKN040
     FM280600 33003KT P6SM BKN027 OVC035
     FM281500 34006KT P6SM BKN035
     FM281900 01009KT P6SM BKN040=

USA.gov is the U.S. government's official web portal to all federal, state and local government web resources and services.